Latest Weather Observations for Perth

IDW60801

Issued at 1:33 pm WST Thursday 8 December 2016 (issued every 30 minutes, with the page automatically refreshed every 10 minutes)

About weather observations | Map of weather stations | Latest weather observations for WA | Other Formats
Station Details ID: 009225 Name: PERTH METRO Lat: -31.92 Lon: 115.87 Height: 24.9 m
Data from the previous 72 hours. | See also: Recent months at Perth
Date/Time
WST
Temp
°C
App
Temp
°C
Dew
Point
°C
Rel
Hum
%
Delta-T
°C
Wind Press
QNH
hPa
Press
MSL
hPa
Rain since
9am
mm
Dir  Spd
km/h
Gust
km/h
Spd
kts
Gust
kts
08/01:30pm 28.2 25.6 3.1 20 12.5 SE 6 13 3 7 1016.4 1016.3 0.0
08/01:00pm 27.7 25.3 5.3 24 11.5 ESE 7 19 4 10 1016.6 1016.5 0.0
08/12:30pm 26.4 23.0 4.2 24 11.1 ENE 11 19 6 10 1017.2 1017.1 0.0
08/12:00pm 25.7 22.0 4.2 25 10.7 ENE 13 22 7 12 1017.8 1017.7 0.0
08/11:30am 24.9 21.8 5.7 29 9.8 ESE 11 19 6 10 1018.3 1018.2 0.0
08/11:00am 23.5 20.4 5.4 31 9.1 ESE 11 19 6 10 1019.0 1018.9 0.0
08/10:30am 22.8 20.2 6.1 34 8.5 E 9 22 5 12 1019.4 1019.3 0.0
08/10:00am 21.6 18.3 6.3 37 7.7 E 13 28 7 15 1019.7 1019.6 0.0
08/09:30am 20.7 17.4 6.3 39 7.2 E 13 28 7 15 1020.0 1019.9 0.0
08/09:00am 19.7 15.9 5.7 40 6.9 ESE 15 26 8 14 1020.2 1020.1 0.0
08/08:30am 18.9 15.4 7.4 47 5.8 E 15 26 8 14 1020.5 1020.4 0.0
08/08:00am 18.0 14.9 7.1 49 5.4 E 13 26 7 14 1020.5 1020.4 0.0
08/07:30am 16.6 12.7 7.3 54 4.6 ENE 17 32 9 17 1020.5 1020.4 0.0
08/07:00am 15.9 12.5 7.7 58 4.1 E 15 33 8 18 1020.5 1020.4 0.0
08/06:30am 14.8 11.3 7.1 60 3.8 E 15 30 8 16 1020.3 1020.2 0.0
08/06:00am 13.8 10.2 6.7 62 3.4 E 15 26 8 14 1020.4 1020.3 0.0
08/05:30am 13.4 10.2 7.0 65 3.1 E 13 26 7 14 1020.0 1019.9 0.0
08/05:00am 13.7 10.1 6.8 63 3.3 E 15 30 8 16 1019.5 1019.4 0.0
08/04:30am 14.1 10.9 6.7 61 3.6 E 13 24 7 13 1019.2 1019.1 0.0
08/04:00am 14.5 11.2 6.6 59 3.8 E 13 20 7 11 1018.9 1018.8 0.0
08/03:30am 14.9 11.6 6.5 57 4.1 E 13 24 7 13 1018.7 1018.6 0.0
08/03:00am 15.4 11.7 6.4 55 4.4 ESE 15 32 8 17 1018.5 1018.4 0.0
08/02:30am 15.7 12.4 6.4 54 4.5 ESE 13 28 7 15 1018.3 1018.2 0.0
08/02:00am 16.4 13.4 6.2 51 5.0 ESE 11 24 6 13 1018.1 1018.0 0.0
08/01:30am 16.7 13.4 6.5 51 5.0 SE 13 28 7 15 1017.9 1017.8 0.0
08/01:00am 17.7 13.7 5.0 43 6.1 SE 15 24 8 13 1017.8 1017.7 0.0
08/12:30am 18.3 14.5 3.8 38 6.8 SE 13 28 7 15 1017.8 1017.7 0.0
08/12:00am 18.9 15.3 3.1 35 7.3 SE 11 19 6 10 1017.7 1017.6 0.0
 
Date/Time
WST
Temp
°C
App
Temp
°C
Dew
Point
°C
Rel
Hum
%
Delta-T
°C
Wind Press
QNH
hPa
Press
MSL
hPa
Rain since
9am
mm
Dir  Spd
km/h
Gust
km/h
Spd
kts
Gust
kts
07/11:30pm 18.5 15.3 5.0 41 6.5 SSE 11 19 6 10 1017.7 1017.6 0.0
07/11:00pm 17.4 15.3 8.3 55 4.6 SSE 9 15 5 8 1017.7 1017.6 0.0
07/10:30pm 16.7 16.0 10.1 65 3.5 SSE 4 9 2 5 1017.6 1017.5 0.0
07/10:00pm 18.3 16.6 9.9 58 4.5 S 9 13 5 7 1017.4 1017.3 0.0
07/09:30pm 18.7 17.2 10.5 59 4.4 S 9 13 5 7 1017.4 1017.3 0.0
07/09:00pm 19.2 17.4 10.7 58 4.6 S 11 15 6 8 1017.2 1017.1 0.0
07/08:30pm 19.5 17.7 11.0 58 4.6 S 11 19 6 10 1017.0 1016.9 0.0
07/08:00pm 19.6 17.9 11.1 58 4.6 S 11 22 6 12 1016.9 1016.8 0.0
07/07:30pm 20.1 17.2 11.1 56 4.9 S 17 24 9 13 1016.7 1016.6 0.0
07/07:00pm 20.4 18.7 11.3 56 5.0 SSW 11 20 6 11 1016.4 1016.3 0.0
07/06:30pm 20.8 17.4 11.2 54 5.3 SW 20 33 11 18 1016.1 1016.0 0.0
07/06:00pm 21.1 17.9 11.4 54 5.4 SSW 19 30 10 16 1016.0 1015.9 0.0
07/05:30pm 21.5 18.4 11.5 53 5.6 SW 19 32 10 17 1015.7 1015.6 0.0
07/05:00pm 21.7 17.8 9.6 46 6.5 SW 20 33 11 18 1015.5 1015.4 0.0
07/04:30pm 22.2 18.6 10.4 47 6.5 SW 20 35 11 19 1015.5 1015.4 0.0
07/04:00pm 22.7 19.6 11.7 49 6.2 SW 19 32 10 17 1015.5 1015.4 0.0
07/03:30pm 22.2 18.4 11.0 49 6.2 SW 22 37 12 20 1015.5 1015.4 0.0
07/03:00pm 23.0 19.6 10.4 45 6.9 SW 19 30 10 16 1015.8 1015.7 0.0
07/02:30pm 22.3 18.5 9.8 45 6.8 SW 20 33 11 18 1015.9 1015.8 0.0
07/02:00pm 23.2 20.0 11.3 47 6.6 SW 19 28 10 15 1015.9 1015.8 0.0
07/01:30pm 22.0 18.5 10.2 47 6.4 SSW 19 35 10 19 1016.1 1016.0 0.0
07/01:00pm 22.8 19.7 10.3 45 6.8 SW 17 28 9 15 1016.1 1016.0 0.0
07/12:30pm 23.1 19.3 9.8 43 7.2 SW 20 32 11 17 1016.2 1016.1 0.0
07/12:00pm 22.8 18.9 9.6 43 7.1 SSW 20 30 11 16 1016.4 1016.3 0.0
07/11:30am 22.8 19.4 11.2 48 6.5 SSW 20 33 11 18 1016.6 1016.5 0.0
07/11:00am 22.1 18.0 8.6 42 7.1 SW 20 33 11 18 1016.8 1016.7 0.0
07/10:30am 21.8 17.6 9.7 46 6.5 SW 22 41 12 22 1016.8 1016.7 0.0
07/10:00am 21.3 16.9 10.5 50 5.9 SSW 24 41 13 22 1016.8 1016.7 0.0
07/09:30am 20.3 16.7 11.8 58 4.7 SSW 22 39 12 21 1016.7 1016.6 0.0
07/09:00am 20.7 18.2 13.6 64 4.1 SSW 19 37 10 20 1016.6 1016.5 0.0
07/08:30am 19.3 17.9 15.6 79 2.2 SW 17 28 9 15 1016.5 1016.4 0.0
07/08:00am 19.7 17.2 13.4 67 3.6 WSW 19 28 10 15 1016.3 1016.2 0.0
07/07:30am 19.7 17.7 12.7 64 3.9 SW 15 24 8 13 1016.2 1016.1 0.0
07/07:00am 19.9 18.5 13.4 66 3.7 SW 13 20 7 11 1015.8 1015.7 0.0
07/06:30am 18.7 17.4 13.8 73 2.8 SW 13 22 7 12 1015.7 1015.6 0.0
07/06:00am 18.7 17.6 13.1 70 3.2 SW 11 22 6 12 1015.2 1015.1 0.0
07/05:30am 18.7 16.9 11.0 61 4.2 SW 11 19 6 10 1015.1 1015.0 0.0
07/05:00am 18.6 16.7 11.7 64 3.8 SW 13 24 7 13 1014.9 1014.8 0.0
07/04:30am 18.6 16.8 10.7 60 4.3 SW 11 17 6 9 1014.6 1014.5 0.0
07/04:00am 18.6 15.7 10.9 61 4.2 SW 17 26 9 14 1014.3 1014.2 0.0
07/03:30am 18.8 16.6 10.9 60 4.3 SW 13 19 7 10 1014.1 1014.0 0.0
07/03:00am 18.6 16.7 10.4 59 4.4 SW 11 19 6 10 1014.1 1014.0 0.0
07/02:30am 18.7 16.3 11.5 63 3.9 SW 15 26 8 14 1014.0 1013.9 0.0
07/02:00am 18.7 16.9 11.0 61 4.2 SW 11 19 6 10 1014.0 1013.9 0.0
07/01:30am 18.7 16.6 11.0 61 4.2 SW 13 20 7 11 1014.1 1014.0 0.0
07/01:00am 18.8 17.2 11.4 62 4.1 SW 11 19 6 10 1014.2 1014.1 0.0
07/12:30am 18.8 16.8 11.4 62 4.1 SW 13 24 7 13 1014.4 1014.3 0.0
07/12:00am 18.8 17.0 12.1 65 3.7 SW 13 24 7 13 1014.4 1014.3 0.0
 
Date/Time
WST
Temp
°C
App
Temp
°C
Dew
Point
°C
Rel
Hum
%
Delta-T
°C
Wind Press
QNH
hPa
Press
MSL
hPa
Rain since
9am
mm
Dir  Spd
km/h
Gust
km/h
Spd
kts
Gust
kts
06/11:30pm 18.6 17.4 12.8 69 3.3 SW 11 22 6 12 1014.5 1014.4 0.0
06/11:00pm 18.0 17.1 12.5 70 3.1 SW 9 15 5 8 1014.8 1014.7 0.0
06/10:30pm 18.0 17.0 12.2 69 3.2 SW 9 17 5 9 1015.1 1015.0 0.0
06/10:00pm 18.2 16.6 12.9 71 3.0 SW 13 20 7 11 1015.3 1015.2 0.0
06/09:30pm 18.3 17.2 13.0 71 3.0 SW 11 19 6 10 1015.3 1015.2 0.0
06/09:00pm 18.3 16.7 12.7 70 3.1 SW 13 22 7 12 1015.4 1015.3 0.0
06/08:30pm 18.3 16.2 12.3 68 3.3 SW 15 26 8 14 1015.5 1015.4 0.0
06/08:00pm 18.5 16.8 12.3 67 3.4 SW 13 24 7 13 1015.4 1015.3 0.0
06/07:30pm 18.5 16.3 12.0 66 3.6 SW 15 22 8 12 1015.1 1015.0 0.0
06/07:00pm 18.8 16.1 11.6 63 4.0 SW 17 26 9 14 1014.8 1014.7 0.0
06/06:30pm 19.6 17.3 11.6 60 4.4 SSW 15 28 8 15 1014.6 1014.5 0.0
06/06:00pm 20.5 17.9 12.0 58 4.7 SW 17 26 9 14 1014.3 1014.2 0.0
06/05:30pm 21.0 18.3 11.6 55 5.2 SW 17 28 9 15 1014.0 1013.9 0.0
06/05:00pm 21.3 17.9 11.1 52 5.6 SSW 20 33 11 18 1013.8 1013.7 0.0
06/04:30pm 21.3 17.6 10.2 49 6.0 SSW 20 30 11 16 1013.7 1013.6 0.0
06/04:00pm 22.4 19.3 11.5 50 6.1 SW 19 33 10 18 1013.9 1013.8 0.0
06/03:30pm 22.8 20.1 11.8 50 6.2 SW 17 28 9 15 1014.1 1014.0 0.0
06/03:00pm 23.4 20.5 11.1 46 6.9 WSW 17 30 9 16 1014.2 1014.1 0.0
06/02:30pm 22.3 18.8 10.8 48 6.3 SW 20 33 11 18 1014.6 1014.5 0.0
06/02:00pm 23.2 20.2 11.9 49 6.4 SW 19 32 10 17 1014.7 1014.6 0.0
06/01:30pm 23.7 20.7 12.0 48 6.6 SW 19 30 10 16 1014.8 1014.7 0.0
06/01:00pm 23.9 21.2 11.6 46 6.9 WSW 17 30 9 16 1014.9 1014.8 0.0
06/12:30pm 24.0 21.2 11.3 45 7.1 SW 17 28 9 15 1015.1 1015.0 0.0
06/12:00pm 24.1 21.4 11.8 46 7.0 SW 17 26 9 14 1015.4 1015.3 0.0
06/11:30am 23.8 21.7 11.2 45 7.1 SSW 13 20 7 11 1015.6 1015.5 0.0
06/11:00am 23.7 22.1 11.4 46 6.9 SSW 11 20 6 11 1015.9 1015.8 0.0
06/10:30am 22.9 21.2 9.7 43 7.2 S 9 19 5 10 1016.4 1016.3 0.0
06/10:00am 22.9 21.4 10.7 46 6.7 SW 9 17 5 9 1016.7 1016.6 0.0
06/09:30am 21.9 20.9 12.2 54 5.5 SSW 9 17 5 9 1016.7 1016.6 0.0
06/09:00am 20.8 19.9 11.4 55 5.2 SSW 7 13 4 7 1017.0 1016.9 0.0
06/08:30am 20.4 19.9 12.6 61 4.4 S 7 9 4 5 1017.3 1017.2 0.0
06/08:00am 18.8 18.0 11.1 61 4.2 SSE 6 11 3 6 1017.5 1017.4 0.0
06/07:30am 18.4 17.7 11.5 64 3.8 SSE 6 9 3 5 1017.5 1017.4 0.0
06/07:00am 17.1 16.3 11.6 70 3.0 S 7 11 4 6 1017.5 1017.4 0.0
06/06:30am 16.1 15.6 12.5 79 2.0 S 7 11 4 6 1017.4 1017.3 0.0
06/06:00am 14.2 15.0 12.4 89 1.0 CALM 0 0 0 0 1017.1 1017.0 0.0
06/05:30am 13.8 13.5 12.7 93 0.6 NNE 6 7 3 4 1016.8 1016.7 0.0
06/05:00am 13.1 13.7 12.0 93 0.6 CALM 0 0 0 0 1016.7 1016.6 0.0
06/04:30am 13.3 13.9 11.9 91 0.8 CALM 0 0 0 0 1016.5 1016.4 0.0
06/04:00am 14.2 14.3 12.8 91 0.8 SSE 4 7 2 4 1016.6 1016.5 0.0
06/03:30am 14.5 15.3 12.5 88 1.1 CALM 0 0 0 0 1016.6 1016.5 0.0
06/03:00am 15.1 14.6 12.8 86 1.3 S 7 9 4 5 1016.6 1016.5 0.0
06/02:30am 15.1 14.7 13.0 87 1.2 S 7 9 4 5 1016.5 1016.4 0.0
06/02:00am 14.8 14.9 12.7 87 1.2 SSE 4 7 2 4 1016.5 1016.4 0.0
06/01:30am 15.3 15.0 12.8 85 1.4 S 6 9 3 5 1016.4 1016.3 0.0
06/01:00am 15.6 15.1 12.7 83 1.6 SSE 7 11 4 6 1016.6 1016.5 0.0
06/12:30am 15.9 15.6 12.8 82 1.7 SSE 6 9 3 5 1016.8 1016.7 0.0
06/12:00am 16.3 15.5 13.0 81 1.8 S 9 13 5 7 1016.6 1016.5 0.0
 
Date/Time
WST
Temp
°C
App
Temp
°C
Dew
Point
°C
Rel
Hum
%
Delta-T
°C
Wind Press
QNH
hPa
Press
MSL
hPa
Rain since
9am
mm
Dir  Spd
km/h
Gust
km/h
Spd
kts
Gust
kts
05/11:30pm 16.6 16.2 13.1 80 2.0 SSE 7 9 4 5 1016.6 1016.5 0.0
05/11:00pm 17.1 16.4 13.2 78 2.2 S 9 13 5 7 1016.5 1016.4 0.0
05/10:30pm 17.3 16.2 13.2 77 2.3 S 11 15 6 8 1016.6 1016.5 0.0
05/10:00pm 17.7 17.0 13.2 75 2.5 S 9 19 5 10 1016.7 1016.6 0.0
05/09:30pm 17.9 16.3 12.8 72 2.9 S 13 24 7 13 1016.7 1016.6 0.0
05/09:00pm 18.1 15.5 12.1 68 3.3 SSW 17 26 9 14 1016.6 1016.5 0.0
05/08:30pm 18.1 16.2 11.7 66 3.5 SSW 13 22 7 12 1016.4 1016.3 0.0
05/08:00pm 18.4 16.0 11.5 64 3.8 SSW 15 26 8 14 1016.3 1016.2 0.0
05/07:30pm 18.4 16.0 11.5 64 3.8 SSW 15 28 8 15 1016.2 1016.1 0.0
05/07:00pm 18.8 16.4 11.4 62 4.0 SSW 15 30 8 16 1016.1 1016.0 0.0
05/06:30pm 19.5 16.2 11.0 58 4.6 SSW 19 33 10 18 1015.8 1015.7 0.0
05/06:00pm 19.8 15.9 10.8 56 4.9 SW 22 35 12 19 1015.4 1015.3 0.0
05/05:30pm 20.2 16.5 10.0 52 5.5 SW 20 37 11 20 1015.0 1014.9 0.0
05/05:00pm 20.8 17.2 10.6 52 5.6 SW 20 37 11 20 1014.7 1014.6 0.0
05/04:30pm 21.1 17.4 10.0 49 6.0 SW 20 35 11 19 1014.7 1014.6 0.0
05/04:00pm 21.1 16.6 10.0 49 6.0 SW 24 41 13 22 1014.6 1014.5 0.0
05/03:30pm 21.8 18.1 10.0 47 6.4 SSW 20 33 11 18 1014.5 1014.4 0.0
05/03:00pm 21.8 17.4 9.0 44 6.8 SSW 22 35 12 19 1014.2 1014.1 0.0
05/02:30pm 21.8 17.2 8.0 41 7.2 SW 22 39 12 21 1014.2 1014.1 0.0
05/02:00pm 22.1 17.6 8.6 42 7.1 SSW 22 39 12 21 1014.3 1014.2 0.0

Other Formats:

Comma delimited format used in spreadsheet applications
http://www.bom.gov.au/fwo/IDW60801/IDW60801.94608.axf

JavaScript Object Notation format (JSON) in row-major order
http://www.bom.gov.au/fwo/IDW60801/IDW60801.94608.json